createdAt,value
2018-06-13T00:01:08.075Z,1.40
2018-06-13T00:03:36.277Z,0.80
2018-06-13T00:06:04.599Z,1.17
2018-06-13T00:08:32.818Z,1.07
2018-06-13T00:11:00.955Z,1.10
2018-06-13T00:13:29.223Z,1.17
2018-06-13T00:15:57.459Z,1.17
2018-06-13T00:18:25.654Z,0.93
2018-06-13T00:20:53.660Z,1.40
2018-06-13T00:23:21.857Z,1.50
2018-06-13T00:25:50.274Z,1.47
2018-06-13T00:28:18.456Z,1.20
2018-06-13T00:30:46.655Z,1.53
2018-06-13T00:33:14.818Z,1.67
2018-06-13T00:35:42.990Z,1.27
2018-06-13T00:38:11.168Z,1.60
2018-06-13T00:40:39.396Z,1.50
2018-06-13T00:43:07.649Z,1.60
2018-06-13T00:45:35.922Z,2.10
2018-06-13T00:48:04.129Z,2.10
2018-06-13T00:50:32.313Z,2.60
2018-06-13T00:53:00.503Z,2.20
2018-06-13T00:55:28.479Z,2.47
2018-06-13T00:57:56.734Z,2.10
2018-06-13T01:00:24.933Z,2.13
2018-06-13T01:02:53.143Z,1.70
2018-06-13T01:05:21.614Z,1.80
2018-06-13T01:07:49.816Z,2.03
2018-06-13T01:10:18.101Z,1.27
2018-06-13T01:12:46.343Z,1.40
2018-06-13T01:15:14.689Z,1.30
2018-06-13T01:17:42.932Z,1.40
2018-06-13T01:20:11.113Z,1.43
2018-06-13T01:22:39.294Z,1.70
2018-06-13T01:25:08.348Z,1.32
2018-06-13T01:27:36.540Z,1.30
2018-06-13T01:30:05.092Z,1.47
2018-06-13T01:32:33.364Z,1.40
2018-06-13T01:35:01.674Z,1.77
2018-06-13T01:37:32.908Z,1.37
2018-06-13T01:40:01.216Z,1.67
2018-06-13T01:42:29.475Z,1.20
2018-06-13T01:44:57.850Z,1.20
2018-06-13T01:47:26.048Z,1.23
2018-06-13T01:49:54.202Z,1.50
2018-06-13T01:52:22.498Z,1.30
2018-06-13T01:54:50.763Z,2.00
2018-06-13T01:57:18.976Z,1.70
2018-06-13T01:59:47.158Z,2.30
2018-06-13T02:02:15.332Z,1.63
2018-06-13T02:04:43.505Z,1.70
2018-06-13T02:07:11.677Z,1.50
2018-06-13T02:09:39.879Z,1.73
2018-06-13T02:12:08.108Z,1.40
2018-06-13T02:14:36.503Z,1.80
2018-06-13T02:17:04.837Z,1.83
2018-06-13T02:19:33.066Z,1.70
2018-06-13T02:22:01.313Z,1.77
2018-06-13T02:24:29.504Z,1.50
2018-06-13T02:26:57.669Z,1.93
2018-06-13T02:29:25.868Z,1.70
2018-06-13T02:31:54.107Z,1.90
2018-06-13T02:34:22.281Z,1.73
2018-06-13T02:36:50.597Z,1.50
2018-06-13T02:39:18.799Z,1.40
2018-06-13T02:41:47.013Z,1.57
2018-06-13T02:44:15.921Z,1.40
2018-06-13T02:46:44.415Z,1.60
2018-06-13T02:49:12.622Z,1.53
2018-06-13T02:51:40.852Z,1.60
2018-06-13T02:54:09.142Z,1.83
2018-06-13T02:56:37.588Z,1.30
2018-06-13T02:59:05.862Z,1.60
2018-06-13T03:01:34.471Z,1.50
2018-06-13T03:04:02.652Z,1.50
2018-06-13T03:06:30.907Z,1.43
2018-06-13T03:08:59.098Z,1.50
2018-06-13T03:11:27.465Z,1.50
2018-06-13T03:13:55.637Z,1.33
2018-06-13T03:16:23.954Z,1.57
2018-06-13T03:18:52.173Z,1.67
2018-06-13T03:21:20.510Z,1.50
2018-06-13T03:23:48.707Z,1.90
2018-06-13T03:26:17.125Z,1.77
2018-06-13T03:28:45.470Z,1.80
2018-06-13T03:31:13.685Z,1.83
2018-06-13T03:33:41.945Z,1.73
2018-06-13T03:36:10.227Z,1.60
2018-06-13T03:38:38.424Z,2.00
2018-06-13T03:41:06.747Z,1.53
2018-06-13T03:43:35.549Z,1.70
2018-06-13T03:46:03.937Z,1.67
2018-06-13T03:48:32.148Z,1.77
2018-06-13T03:51:00.374Z,2.10
2018-06-13T03:53:28.563Z,1.60
2018-06-13T03:55:56.821Z,1.67
2018-06-13T03:58:25.117Z,1.60
2018-06-13T04:00:53.262Z,1.50
2018-06-13T04:03:21.495Z,1.70
2018-06-13T04:05:49.822Z,1.53
2018-06-13T04:08:18.051Z,1.40
2018-06-13T04:10:46.268Z,1.30
2018-06-13T04:16:16.738Z,1.60
2018-06-13T04:18:44.985Z,1.50
2018-06-13T04:21:13.356Z,1.70
2018-06-13T04:23:41.511Z,1.57
2018-06-13T04:26:09.936Z,1.70
2018-06-13T04:28:39.016Z,1.70
2018-06-13T04:31:07.269Z,1.40
2018-06-13T04:33:35.481Z,1.40
2018-06-13T04:36:04.029Z,1.40
2018-06-13T04:38:32.243Z,1.47
2018-06-13T04:41:00.519Z,1.77
2018-06-13T04:43:28.752Z,1.77
2018-06-13T04:45:57.140Z,1.80
2018-06-13T04:48:25.317Z,1.63
2018-06-13T04:50:53.515Z,1.87
2018-06-13T04:53:21.733Z,2.00
2018-06-13T04:55:49.917Z,1.73
2018-06-13T04:58:18.185Z,2.00
2018-06-13T05:00:46.367Z,1.50
2018-06-13T05:03:15.076Z,1.40
2018-06-13T05:05:43.360Z,1.47
2018-06-13T05:08:11.607Z,1.47
2018-06-13T05:10:39.793Z,1.40
2018-06-13T05:13:08.579Z,1.30
2018-06-13T05:15:36.969Z,1.10
2018-06-13T05:18:05.262Z,1.10
2018-06-13T05:20:33.627Z,1.10
2018-06-13T05:23:01.835Z,1.20
2018-06-13T05:25:30.116Z,1.13
2018-06-13T05:27:58.302Z,1.40
2018-06-13T05:30:26.501Z,1.10
2018-06-13T05:32:54.667Z,1.33
2018-06-13T05:35:23.072Z,1.10
2018-06-13T05:37:51.217Z,1.23
2018-06-13T05:40:19.434Z,1.17
2018-06-13T05:42:47.598Z,0.90
2018-06-13T05:45:16.399Z,1.12
2018-06-13T05:47:44.625Z,1.30
2018-06-13T05:50:12.792Z,1.63
2018-06-13T05:52:41.008Z,1.20
2018-06-13T05:55:09.302Z,1.10
2018-06-13T05:57:37.519Z,1.17
2018-06-13T06:00:05.965Z,1.07
2018-06-13T06:02:33.921Z,1.43
2018-06-13T06:05:02.169Z,1.03
2018-06-13T06:07:30.324Z,1.20
2018-06-13T06:09:58.529Z,1.37
2018-06-13T06:12:26.704Z,1.20
2018-06-13T06:14:56.068Z,1.53
2018-06-13T06:17:24.259Z,1.30
2018-06-13T06:19:52.482Z,1.47
2018-06-13T06:22:20.741Z,1.50
2018-06-13T06:24:48.892Z,1.40
2018-06-13T06:27:17.090Z,1.40
2018-06-13T06:29:45.077Z,1.57
2018-06-13T06:32:13.344Z,1.20
2018-06-13T06:34:41.580Z,0.97
2018-06-13T06:37:09.789Z,1.27
2018-06-13T06:39:37.968Z,1.13
2018-06-13T06:42:06.708Z,1.47
2018-06-13T06:44:34.875Z,1.00
2018-06-13T06:47:03.259Z,1.33
2018-06-13T06:49:31.424Z,1.07
2018-06-13T06:51:59.667Z,1.40
2018-06-13T06:54:27.894Z,1.30
2018-06-13T06:56:56.099Z,1.30
2018-06-13T06:59:24.393Z,1.27
2018-06-13T07:01:52.577Z,1.43
2018-06-13T07:04:20.789Z,0.93
2018-06-13T07:06:49.038Z,1.37
2018-06-13T07:09:17.239Z,1.23
2018-06-13T07:11:45.440Z,1.07
2018-06-13T07:14:13.869Z,1.23
2018-06-13T07:16:42.145Z,1.17
2018-06-13T07:19:10.397Z,1.20
2018-06-13T07:21:38.678Z,0.90
2018-06-13T07:24:06.849Z,1.10
2018-06-13T07:26:35.252Z,0.90
2018-06-13T07:29:03.467Z,1.17
2018-06-13T07:31:31.447Z,1.23
2018-06-13T07:36:34.952Z,1.30
2018-06-13T07:39:03.220Z,1.00
2018-06-13T07:41:31.549Z,1.10
2018-06-13T07:43:59.788Z,1.23
2018-06-13T07:46:28.054Z,1.20
2018-06-13T07:48:56.219Z,0.80
2018-06-13T07:51:24.531Z,0.90
2018-06-13T07:53:52.833Z,0.80
2018-06-13T07:56:21.078Z,1.47
2018-06-13T07:58:49.324Z,1.20
2018-06-13T08:01:18.214Z,1.10
2018-06-13T08:03:46.436Z,1.17
2018-06-13T08:06:14.591Z,0.87
2018-06-13T08:08:44.631Z,1.00
2018-06-13T08:11:12.815Z,1.20
2018-06-13T08:13:41.006Z,1.70
2018-06-13T08:16:09.407Z,1.50
2018-06-13T08:18:37.634Z,1.10
2018-06-13T08:21:06.026Z,1.50
2018-06-13T08:23:34.266Z,1.37
2018-06-13T08:26:02.713Z,1.30
2018-06-13T08:28:30.920Z,1.30
2018-06-13T08:30:59.120Z,1.73
2018-06-13T08:33:27.382Z,1.13
2018-06-13T08:35:55.804Z,1.17
2018-06-13T08:38:24.024Z,1.57
2018-06-13T08:40:52.816Z,1.30
2018-06-13T08:43:20.953Z,1.73
2018-06-13T08:45:48.946Z,1.47
2018-06-13T08:48:17.830Z,1.67
2018-06-13T08:50:46.053Z,1.03
2018-06-13T08:53:14.289Z,1.20
2018-06-13T08:55:42.670Z,1.73
2018-06-13T08:58:11.049Z,1.50
2018-06-13T09:00:39.305Z,1.20
2018-06-13T09:03:07.293Z,1.50
2018-06-13T09:05:35.739Z,1.60
2018-06-13T09:08:03.919Z,1.10
2018-06-13T09:10:32.086Z,1.80
2018-06-13T09:13:00.300Z,1.43
2018-06-13T09:15:28.561Z,1.43
2018-06-13T09:17:56.825Z,1.40
2018-06-13T09:20:25.022Z,1.20
2018-06-13T09:22:53.537Z,1.10
2018-06-13T09:25:21.917Z,1.50
2018-06-13T09:27:50.108Z,1.17
2018-06-13T09:30:18.282Z,1.20
2018-06-13T09:32:46.476Z,1.23
2018-06-13T09:35:14.760Z,1.10
2018-06-13T09:37:43.065Z,1.00
2018-06-13T09:40:11.800Z,1.67
2018-06-13T09:42:40.082Z,1.23
2018-06-13T09:45:09.273Z,0.90
2018-06-13T09:47:37.575Z,2.27
2018-06-13T09:50:05.764Z,1.40
2018-06-13T09:52:33.888Z,1.27
2018-06-13T09:55:01.883Z,1.43
2018-06-13T09:57:30.152Z,1.53
2018-06-13T10:00:03.688Z,1.30
2018-06-13T10:02:37.256Z,1.10
2018-06-13T10:05:06.242Z,1.07
2018-06-13T10:07:34.421Z,1.53
2018-06-13T10:10:02.594Z,1.33
2018-06-13T10:12:30.803Z,1.70
2018-06-13T10:14:59.168Z,1.47
2018-06-13T10:17:27.365Z,1.63
2018-06-13T10:19:55.519Z,1.40
2018-06-13T10:22:23.919Z,1.13
2018-06-13T10:24:52.168Z,1.20
2018-06-13T10:27:25.754Z,1.10
2018-06-13T10:29:53.954Z,1.60
2018-06-13T10:32:22.177Z,1.47
2018-06-13T10:34:50.535Z,1.50
2018-06-13T10:37:18.745Z,1.57
2018-06-13T10:39:46.976Z,1.67
2018-06-13T10:42:15.181Z,1.30
2018-06-13T10:44:43.457Z,1.43
2018-06-13T10:47:11.699Z,1.37
2018-06-13T10:49:39.915Z,1.50
2018-06-13T10:52:08.054Z,1.50
2018-06-13T10:54:36.081Z,1.30
2018-06-13T10:57:04.542Z,1.30
2018-06-13T10:59:32.855Z,1.80
2018-06-13T11:02:01.097Z,1.60
2018-06-13T11:04:29.397Z,1.90
2018-06-13T11:06:57.793Z,2.27
2018-06-13T11:09:25.976Z,1.50
2018-06-13T11:11:54.075Z,1.80
2018-06-13T11:14:22.323Z,1.70
2018-06-13T11:16:50.305Z,2.13
2018-06-13T11:22:18.276Z,1.27
2018-06-13T11:24:46.486Z,1.83
2018-06-13T11:27:14.687Z,2.43
2018-06-13T11:29:42.847Z,2.37
2018-06-13T11:32:11.089Z,1.50
2018-06-13T11:34:39.263Z,2.33
2018-06-13T11:37:07.507Z,1.80
2018-06-13T11:39:35.831Z,1.80
2018-06-13T11:42:04.024Z,2.10
2018-06-13T11:44:32.197Z,1.73
2018-06-13T11:47:00.472Z,1.87
2018-06-13T11:49:29.041Z,1.83
2018-06-13T11:51:57.286Z,1.80
2018-06-13T11:54:25.563Z,1.70
2018-06-13T11:56:53.846Z,1.63
2018-06-13T11:59:22.056Z,1.77
2018-06-13T12:01:50.303Z,1.43
2018-06-13T12:04:18.444Z,1.60
2018-06-13T12:06:47.801Z,1.93
2018-06-13T12:09:16.021Z,2.03
2018-06-13T12:11:44.236Z,1.87
2018-06-13T12:14:12.451Z,1.93
2018-06-13T12:16:40.784Z,1.80
2018-06-13T12:19:08.916Z,1.80
2018-06-13T12:21:37.089Z,1.70
2018-06-13T12:24:05.267Z,2.30
2018-06-13T12:26:33.535Z,1.70
2018-06-13T12:29:01.763Z,2.03
2018-06-13T12:31:30.025Z,1.83
2018-06-13T12:33:58.290Z,1.80
2018-06-13T12:36:26.600Z,2.10
2018-06-13T12:38:54.823Z,1.70
2018-06-13T12:41:23.012Z,1.97
2018-06-13T12:43:51.191Z,1.80
2018-06-13T12:46:19.454Z,1.80
2018-06-13T12:48:47.662Z,1.63
2018-06-13T12:51:15.829Z,1.90
2018-06-13T12:53:44.003Z,2.13
2018-06-13T12:56:12.420Z,1.63
2018-06-13T12:58:40.708Z,2.20
2018-06-13T13:01:08.950Z,1.60
2018-06-13T13:03:38.100Z,1.63
2018-06-13T13:06:06.411Z,1.67
2018-06-13T13:08:34.706Z,2.13
2018-06-13T13:11:03.060Z,2.13
2018-06-13T13:13:31.343Z,1.93
2018-06-13T13:15:59.637Z,2.20
2018-06-13T13:18:27.804Z,1.53
2018-06-13T13:20:55.999Z,1.90
2018-06-13T13:23:24.140Z,1.73
2018-06-13T13:25:52.792Z,1.90
2018-06-13T13:28:21.043Z,1.70
2018-06-13T13:30:49.587Z,2.10
2018-06-13T13:33:17.784Z,1.80
2018-06-13T13:35:46.019Z,2.67
2018-06-13T13:38:14.223Z,2.10
2018-06-13T13:40:42.507Z,1.80
2018-06-13T13:43:10.529Z,1.80
2018-06-13T13:45:38.944Z,1.77
2018-06-13T13:48:07.143Z,1.87
2018-06-13T13:50:35.379Z,1.63
2018-06-13T13:53:03.675Z,1.97
2018-06-13T14:02:17.157Z,2.40
2018-06-13T14:04:45.404Z,1.67
2018-06-13T14:07:13.688Z,1.40
2018-06-13T14:09:41.928Z,1.83
2018-06-13T14:12:10.178Z,1.37
2018-06-13T14:14:38.361Z,1.67
2018-06-13T14:17:06.821Z,1.90
2018-06-13T14:19:34.961Z,1.80
2018-06-13T14:22:03.161Z,1.90
2018-06-13T14:24:31.339Z,1.93
2018-06-13T14:26:59.699Z,2.30
2018-06-13T14:29:27.895Z,2.10
2018-06-13T14:31:56.203Z,2.57
2018-06-13T14:34:25.182Z,1.97
2018-06-13T14:36:53.604Z,1.90
2018-06-13T14:39:21.872Z,2.10
2018-06-13T14:41:50.088Z,1.97
2018-06-13T14:44:18.336Z,2.23
2018-06-13T14:46:46.758Z,2.30
2018-06-13T14:49:14.952Z,2.60
2018-06-13T14:51:44.242Z,1.93
2018-06-13T14:54:12.449Z,1.97
2018-06-13T14:56:40.855Z,2.07
2018-06-13T14:59:09.024Z,2.03
2018-06-13T15:01:37.247Z,2.30
2018-06-13T15:04:05.462Z,2.20
2018-06-13T15:06:36.347Z,2.00
2018-06-13T15:09:08.276Z,1.97
2018-06-13T15:11:37.304Z,2.10
2018-06-13T15:14:05.695Z,1.90
2018-06-13T15:16:33.965Z,1.70
2018-06-13T15:19:02.196Z,1.57
2018-06-13T15:21:30.423Z,2.00
2018-06-13T15:23:58.644Z,2.00
2018-06-13T15:26:26.922Z,2.23
2018-06-13T15:31:29.847Z,1.97
2018-06-13T15:33:58.176Z,1.73
2018-06-13T15:36:26.660Z,1.93
2018-06-13T15:38:54.986Z,1.80
2018-06-13T15:41:23.232Z,1.73
2018-06-13T15:43:51.480Z,1.63
2018-06-13T15:46:19.802Z,1.50
2018-06-13T15:48:48.313Z,2.03
2018-06-13T15:51:16.522Z,1.60
2018-06-13T15:53:44.661Z,1.67
2018-06-13T15:56:13.122Z,1.77
2018-06-13T15:58:41.336Z,1.70
2018-06-13T16:01:09.477Z,1.90
2018-06-13T16:03:37.891Z,2.03
2018-06-13T16:06:06.235Z,2.03
2018-06-13T16:08:34.477Z,2.00
2018-06-13T16:11:02.814Z,2.00
2018-06-13T16:13:31.012Z,1.90
2018-06-13T16:16:00.386Z,1.80
2018-06-13T16:18:28.618Z,1.67
2018-06-13T16:20:56.820Z,2.10
2018-06-13T16:23:25.788Z,1.83
2018-06-13T16:25:54.222Z,1.53
2018-06-13T16:28:22.485Z,1.47
2018-06-13T16:30:50.703Z,1.57
2018-06-13T16:33:18.903Z,1.80
2018-06-13T16:35:47.267Z,1.40
2018-06-13T16:38:15.477Z,1.50
2018-06-13T16:40:43.854Z,1.73
2018-06-13T16:43:12.329Z,1.70
2018-06-13T16:45:40.678Z,1.90
2018-06-13T16:48:08.845Z,2.17
2018-06-13T16:50:47.309Z,1.70
2018-06-13T16:53:26.994Z,1.70
2018-06-13T16:55:55.346Z,1.50
2018-06-13T16:58:23.699Z,1.70
2018-06-13T17:00:52.024Z,1.63
2018-06-13T17:03:20.281Z,1.40
2018-06-13T17:05:48.402Z,1.40
2018-06-13T17:08:16.652Z,1.60
2018-06-13T17:10:44.909Z,1.60
2018-06-13T17:13:13.194Z,2.00
2018-06-13T17:15:41.414Z,1.77
2018-06-13T17:18:09.690Z,1.60
2018-06-13T17:20:37.902Z,1.77
2018-06-13T17:23:06.168Z,1.80
2018-06-13T17:25:34.482Z,1.50
2018-06-13T17:28:02.739Z,1.90
2018-06-13T17:30:31.079Z,1.80
2018-06-13T17:32:59.254Z,1.90
2018-06-13T17:35:27.637Z,1.77
2018-06-13T17:37:55.901Z,1.60
2018-06-13T17:40:24.237Z,1.63
2018-06-13T17:42:52.511Z,1.47
2018-06-13T17:45:20.824Z,1.80
2018-06-13T17:47:49.113Z,1.43
2018-06-13T17:50:17.383Z,1.67
2018-06-13T17:52:45.595Z,1.87
2018-06-13T17:55:13.865Z,1.87
2018-06-13T17:57:42.263Z,1.80
2018-06-13T18:00:10.495Z,2.00
2018-06-13T18:02:38.744Z,1.90
2018-06-13T18:05:09.048Z,2.17
2018-06-13T18:07:37.320Z,1.60
2018-06-13T18:10:05.552Z,1.90
2018-06-13T18:12:33.792Z,1.63
2018-06-13T18:15:03.217Z,1.50
2018-06-13T18:17:31.779Z,1.37
2018-06-13T18:20:00.117Z,1.50
2018-06-13T18:22:28.320Z,1.80
2018-06-13T18:24:56.875Z,1.43
2018-06-13T18:27:25.056Z,1.40
2018-06-13T18:29:53.315Z,1.23
2018-06-13T18:32:21.719Z,1.60
2018-06-13T18:34:49.998Z,1.20
2018-06-13T18:37:18.287Z,1.40
2018-06-13T18:39:46.555Z,1.20
2018-06-13T18:42:14.736Z,1.20
2018-06-13T18:44:42.913Z,1.40
2018-06-13T18:47:11.090Z,1.55
2018-06-13T18:49:39.568Z,1.50
2018-06-13T18:52:07.972Z,1.50
2018-06-13T18:54:36.183Z,1.30
2018-06-13T18:57:04.573Z,1.70
2018-06-13T18:59:32.799Z,1.60
2018-06-13T19:02:01.078Z,1.50
2018-06-13T19:04:29.468Z,1.60
2018-06-13T19:06:57.840Z,1.70
2018-06-13T19:09:26.037Z,1.70
2018-06-13T19:11:54.320Z,1.40
2018-06-13T19:14:22.554Z,1.53
2018-06-13T19:16:51.191Z,1.30
2018-06-13T19:19:19.655Z,1.40
2018-06-13T19:21:47.803Z,1.70
2018-06-13T19:24:16.431Z,1.47
2018-06-13T19:26:44.783Z,1.60
2018-06-13T19:29:13.031Z,1.23
2018-06-13T19:31:41.363Z,1.30
2018-06-13T19:34:09.648Z,1.10
2018-06-13T19:36:37.967Z,1.20
2018-06-13T19:39:07.660Z,1.40
2018-06-13T19:41:36.712Z,1.67
2018-06-13T19:44:04.927Z,1.30
2018-06-13T19:46:33.260Z,1.50
2018-06-13T19:49:01.411Z,1.87
2018-06-13T19:51:29.728Z,1.50
2018-06-13T19:54:03.372Z,1.37
2018-06-13T19:56:32.456Z,1.27
2018-06-13T19:59:00.743Z,1.37
2018-06-13T20:01:29.049Z,1.40
2018-06-13T20:04:03.748Z,1.10
2018-06-13T20:06:32.303Z,1.60
2018-06-13T20:09:00.528Z,1.27
2018-06-13T20:11:29.011Z,1.50
2018-06-13T20:14:02.506Z,1.60
2018-06-13T20:16:47.582Z,1.37
2018-06-13T20:19:21.323Z,1.47
2018-06-13T20:21:49.547Z,1.60
2018-06-13T20:24:17.782Z,1.37
2018-06-13T20:26:51.294Z,1.50
2018-06-13T20:29:25.037Z,1.40
2018-06-13T20:31:53.201Z,1.50
2018-06-13T20:34:21.470Z,1.80
2018-06-13T20:36:49.750Z,1.87
2018-06-13T20:39:17.904Z,1.97
2018-06-13T20:41:46.081Z,1.60
2018-06-13T20:44:14.297Z,1.70
2018-06-13T20:46:42.607Z,1.40
2018-06-13T20:49:10.784Z,1.40
2018-06-13T20:51:39.635Z,1.70
2018-06-13T20:54:07.875Z,1.47
2018-06-13T20:56:37.194Z,1.73
2018-06-13T20:59:05.496Z,1.73
2018-06-13T21:01:33.735Z,2.10
2018-06-13T21:04:02.053Z,1.67
2018-06-13T21:06:30.541Z,1.60
2018-06-13T21:08:58.795Z,1.63
2018-06-13T21:11:26.977Z,1.90
2018-06-13T21:13:55.279Z,1.70
2018-06-13T21:16:23.598Z,1.70
2018-06-13T21:18:51.828Z,1.80
2018-06-13T21:21:20.026Z,1.60
2018-06-13T21:23:48.154Z,1.93
2018-06-13T21:26:16.469Z,1.63
2018-06-13T21:28:45.648Z,1.63
2018-06-13T21:31:13.851Z,1.73
2018-06-13T21:33:42.070Z,1.83
2018-06-13T21:36:11.128Z,1.70
2018-06-13T21:38:39.286Z,1.43
2018-06-13T21:41:07.611Z,1.53
2018-06-13T21:43:35.842Z,1.73
2018-06-13T21:46:04.050Z,2.13
2018-06-13T21:48:32.235Z,1.93
2018-06-13T21:51:00.452Z,2.33
2018-06-13T21:53:28.640Z,2.10
2018-06-13T21:55:57.006Z,2.10
2018-06-13T21:58:25.264Z,2.50
2018-06-13T22:00:53.468Z,2.03
2018-06-13T22:03:21.748Z,1.80
2018-06-13T22:05:50.191Z,1.87
2018-06-13T22:08:18.426Z,2.17
2018-06-13T22:10:46.658Z,2.07
2018-06-13T22:13:14.894Z,1.97
2018-06-13T22:15:43.261Z,2.13
2018-06-13T22:18:11.475Z,2.00
2018-06-13T22:20:39.838Z,2.33
2018-06-13T22:23:08.031Z,2.60
2018-06-13T22:25:36.325Z,2.60
2018-06-13T22:28:04.779Z,2.10
2018-06-13T22:30:32.957Z,2.33
2018-06-13T22:33:01.136Z,2.20
2018-06-13T22:35:29.411Z,2.27
2018-06-13T22:37:57.622Z,2.40
2018-06-13T22:40:25.568Z,2.13
2018-06-13T22:42:53.836Z,2.27
2018-06-13T22:45:22.089Z,2.10
2018-06-13T22:47:50.262Z,2.07
2018-06-13T22:50:18.452Z,2.27
2018-06-13T22:52:46.677Z,2.40
2018-06-13T22:55:15.914Z,2.60
2018-06-13T22:57:44.111Z,2.27
2018-06-13T23:00:14.419Z,2.50
2018-06-13T23:02:42.585Z,2.07
2018-06-13T23:05:11.016Z,2.47
2018-06-13T23:07:39.146Z,2.27
2018-06-13T23:10:07.971Z,2.20
2018-06-13T23:12:36.320Z,2.20
2018-06-13T23:15:05.131Z,2.20
2018-06-13T23:17:33.317Z,2.47
2018-06-13T23:20:01.563Z,2.30
2018-06-13T23:22:29.734Z,2.17
2018-06-13T23:24:57.963Z,2.47
2018-06-13T23:27:26.691Z,2.30
2018-06-13T23:29:55.029Z,2.23
2018-06-13T23:32:23.246Z,2.10
2018-06-13T23:34:51.604Z,2.00
2018-06-13T23:37:19.782Z,2.20
2018-06-13T23:39:47.944Z,2.20
2018-06-13T23:42:16.166Z,2.30
2018-06-13T23:44:44.325Z,2.10
2018-06-13T23:47:12.581Z,2.27
2018-06-13T23:49:40.774Z,2.17
2018-06-13T23:52:08.944Z,2.10
2018-06-13T23:54:37.218Z,2.40
2018-06-13T23:57:05.809Z,2.37
2018-06-13T23:59:34.043Z,2.00
